Russellville, Ohio
Current Conditions -  °F | °C
As of 4:35 AM on Saturday 25 Oct 2014 (Local Time) from KFGX Reporting Station
Clear Clear  
Wind Chill: 41°   Ceiling: Unl
Heat Index: 45°   Visibility: 10mi
Dew Point: 40°   Wind: 6mph
Humidity: 85%   Direction: 200°SSW
Pressure: 30.05"   Gusts: NA
Location:  38.87°N, 83.79°W
Report Text: KFGX 250835Z AUTO 20005KT 10SM CLR 07/05 A3005 RMK AO2 T00700047
Loading
Personal Weather Stations






























Interactive Weather Map
Tropical Storm Tracking
New forecast layout! Learn more

10-Day Weather Forecast

Advertisements
Track Severe Weather on mobile